This is the latest recevied weather packets stored in our database for station/object DC1NF-7. If no packets are shown the sender has not sent any weather packets the latest 1 day(s).
| Time | Temp. | Humidity | Pressure | Rain* | Wind** | Luminosity | Snow |
|---|---|---|---|---|---|---|---|
| 1777995338 | 19.44° C | 66% | 1006.5 hPa | 0 mm | 4.02 m/s, 208° | 20 W/m² | - |
| 1777994731 | 20.56° C | 61% | 1005.9 hPa | 0 mm | 1.34 m/s, 242° | 43 W/m² | - |
| 1777994130 | 21.11° C | 57% | 1005.5 hPa | 0 mm | 1.79 m/s, 240° | 72 W/m² | - |
| 1777993526 | 21.67° C | 53% | 1005.5 hPa | 0 mm | 0.45 m/s, 229° | 54 W/m² | - |
| 1777992920 | 21.67° C | 51% | 1005.4 hPa | 0 mm | 0.89 m/s, 164° | 113 W/m² | - |
| 1777992317 | 22.22° C | 51% | 1005.4 hPa | 0 mm | 0.45 m/s, 128° | 125 W/m² | - |
| 1777991776 | 22.22° C | 50% | 1005.5 hPa | 0 mm | 0.45 m/s, 161° | 176 W/m² | - |
| 1777991169 | 22.22° C | 51% | 1005.6 hPa | 0 mm | 0.89 m/s, 124° | 218 W/m² | - |
| 1777990565 | 22.22° C | 51% | 1005.5 hPa | 0 mm | 0.89 m/s, 97° | 238 W/m² | - |
| 1777989963 | 22.78° C | 50% | 1005.6 hPa | 0 mm | 0.89 m/s, 106° | 192 W/m² | - |
| 1777989359 | 22.78° C | 50% | 1005.8 hPa | 0 mm | 0.89 m/s, 229° | 169 W/m² | - |
| 1777988752 | 22.78° C | 50% | 1005.9 hPa | 0 mm | 0.89 m/s, 92° | 137 W/m² | - |
| 1777988151 | 23.33° C | 47% | 1005.9 hPa | 0 mm | 0.89 m/s, 228° | 197 W/m² | - |
| 1777987545 | 23.33° C | 47% | 1005.9 hPa | 0 mm | 1.34 m/s, 166° | 221 W/m² | - |
| 1777986942 | 23.89° C | 42% | 1006.1 hPa | 0 mm | 1.34 m/s, 71° | 326 W/m² | - |
| 1777986338 | 24.44° C | 42% | 1006.1 hPa | 0 mm | 0.89 m/s, 136° | 679 W/m² | - |
| 1777985737 | 25° C | 41% | 1006.4 hPa | 0 mm | 0.89 m/s, 118° | 625 W/m² | - |
| 1777985130 | 24.44° C | 40% | 1006.4 hPa | 0 mm | 0.45 m/s, 248° | 810 W/m² | - |
| 1777984527 | 25.56° C | 39% | 1006.5 hPa | 0 mm | 0.89 m/s, 210° | 576 W/m² | - |
| 1777983923 | 23.89° C | 42% | 1006.6 hPa | 0 mm | 0.45 m/s, 71° | 479 W/m² | - |
| 1777983320 | 23.89° C | 41% | 1006.8 hPa | 0 mm | 0.89 m/s, 213° | 408 W/m² | - |
| 1777982720 | 23.89° C | 42% | 1006.8 hPa | 0 mm | 0.89 m/s, 240° | 422 W/m² | - |
| 1777982175 | 23.33° C | 43% | 1006.9 hPa | 0 mm | 0.89 m/s, 218° | 722 W/m² | - |
| 1777981571 | 23.89° C | 45% | 1007 hPa | 0 mm | 0.89 m/s, 161° | 402 W/m² | - |
| 1777980967 | 25° C | 40% | 1007.1 hPa | 0 mm | 0.45 m/s, 73° | 971 W/m² | - |
* Rain latest hour (hover to see other rain measurements)
** Current wind speed in m/s (hover to see current wind gust speed)